createdAt,value
2019-01-02T00:00:38.118Z,3.50
2019-01-02T00:03:09.418Z,3.50
2019-01-02T00:05:41.050Z,3.50
2019-01-02T00:08:12.341Z,3.50
2019-01-02T00:10:43.920Z,3.40
2019-01-02T00:13:15.253Z,3.30
2019-01-02T00:15:46.468Z,3.20
2019-01-02T00:18:17.726Z,3.10
2019-01-02T00:20:49.009Z,3.00
2019-01-02T00:23:21.577Z,3.00
2019-01-02T00:25:52.878Z,3.00
2019-01-02T00:28:24.362Z,3.00
2019-01-02T00:30:55.628Z,2.90
2019-01-02T00:33:26.901Z,2.90
2019-01-02T00:35:58.359Z,2.90
2019-01-02T00:38:29.631Z,2.80
2019-01-02T00:41:01.284Z,2.90
2019-01-02T00:43:32.553Z,2.80
2019-01-02T00:46:04.222Z,2.80
2019-01-02T00:48:35.506Z,2.80
2019-01-02T00:51:06.742Z,2.80
2019-01-02T00:53:39.034Z,2.80
2019-01-02T00:56:10.832Z,2.70
2019-01-02T00:58:42.166Z,2.70
2019-01-02T01:01:14.613Z,2.80
2019-01-02T01:03:45.947Z,2.80
2019-01-02T01:06:17.444Z,2.70
2019-01-02T01:08:48.777Z,2.70
2019-01-02T01:11:20.217Z,2.70
2019-01-02T01:13:51.595Z,2.70
2019-01-02T01:16:22.914Z,2.70
2019-01-02T01:18:54.565Z,2.60
2019-01-02T01:21:25.884Z,2.60
2019-01-02T01:23:57.449Z,2.60
2019-01-02T01:26:28.807Z,2.60
2019-01-02T01:29:00.127Z,2.60
2019-01-02T01:31:31.714Z,2.60
2019-01-02T01:34:03.510Z,2.50
2019-01-02T01:36:34.885Z,2.50
2019-01-02T01:39:07.994Z,2.50
2019-01-02T01:41:39.309Z,2.50
2019-01-02T01:44:10.642Z,2.50
2019-01-02T01:46:42.926Z,2.50
2019-01-02T01:49:14.247Z,2.50
2019-01-02T01:51:46.011Z,2.50
2019-01-02T01:54:17.360Z,2.40
2019-01-02T01:56:48.682Z,2.40
2019-01-02T01:59:20.302Z,2.40
2019-01-02T02:01:51.618Z,2.40
2019-01-02T02:04:22.950Z,2.40
2019-01-02T02:06:54.606Z,2.30
2019-01-02T02:09:26.070Z,2.30
2019-01-02T02:11:58.447Z,2.30
2019-01-02T02:14:29.882Z,2.30
2019-01-02T02:17:01.206Z,2.30
2019-01-02T02:19:32.851Z,2.30
2019-01-02T02:22:04.218Z,2.20
2019-01-02T02:24:35.593Z,2.30
2019-01-02T02:27:07.231Z,2.30
2019-01-02T02:29:38.908Z,2.30
2019-01-02T02:32:11.275Z,2.40
2019-01-02T02:34:42.627Z,2.40
2019-01-02T02:37:13.985Z,2.40
2019-01-02T02:39:45.267Z,2.40
2019-01-02T02:42:16.821Z,2.40
2019-01-02T02:44:48.514Z,2.50
2019-01-02T02:47:20.210Z,2.50
2019-01-02T02:49:51.770Z,2.50
2019-01-02T02:52:23.026Z,2.60
2019-01-02T02:54:54.355Z,2.50
2019-01-02T02:57:26.345Z,2.60
2019-01-02T02:59:57.641Z,2.60
2019-01-02T03:02:28.977Z,2.60
2019-01-02T03:05:00.788Z,2.60
2019-01-02T03:07:32.422Z,2.60
2019-01-02T03:10:04.105Z,2.60
2019-01-02T03:12:35.929Z,2.70
2019-01-02T03:15:08.077Z,2.70
2019-01-02T03:17:39.410Z,2.70
2019-01-02T03:20:12.488Z,2.80
2019-01-02T03:22:45.430Z,2.80
2019-01-02T03:25:17.186Z,2.70
2019-01-02T03:27:49.818Z,2.70
2019-01-02T03:30:21.459Z,2.70
2019-01-02T03:32:53.089Z,2.70
2019-01-02T03:35:24.699Z,2.60
2019-01-02T03:37:56.237Z,2.70
2019-01-02T03:40:27.564Z,2.70
2019-01-02T03:42:58.866Z,2.70
2019-01-02T03:45:30.179Z,2.70
2019-01-02T03:48:01.485Z,2.70
2019-01-02T03:50:32.891Z,2.60
2019-01-02T03:53:04.199Z,2.60
2019-01-02T03:55:36.881Z,2.60
2019-01-02T03:58:08.368Z,2.60
2019-01-02T04:00:39.818Z,2.70
2019-01-02T04:03:11.150Z,2.70
2019-01-02T04:05:42.585Z,2.70
2019-01-02T04:08:14.593Z,2.70
2019-01-02T04:10:47.926Z,2.70
2019-01-02T04:13:19.314Z,2.70
2019-01-02T04:15:50.642Z,2.70
2019-01-02T04:18:21.998Z,2.70
2019-01-02T04:20:53.293Z,2.70
2019-01-02T04:23:24.721Z,2.70
2019-01-02T04:25:56.020Z,2.80
2019-01-02T04:28:27.345Z,2.70
2019-01-02T04:30:58.873Z,2.80
2019-01-02T04:33:30.183Z,2.80
2019-01-02T04:36:01.551Z,2.80
2019-01-02T04:38:32.875Z,2.80
2019-01-02T04:41:04.338Z,2.80
2019-01-02T04:43:35.642Z,2.80
2019-01-02T04:46:06.978Z,2.80
2019-01-02T04:48:38.497Z,2.80
2019-01-02T04:51:09.778Z,2.80
2019-01-02T04:53:41.112Z,2.80
2019-01-02T04:56:13.610Z,2.80
2019-01-02T04:58:44.925Z,2.80
2019-01-02T05:01:16.285Z,2.80
2019-01-02T05:03:47.777Z,2.80
2019-01-02T05:06:19.104Z,2.80
2019-01-02T05:08:50.377Z,2.90
2019-01-02T05:11:21.762Z,2.80
2019-01-02T05:13:53.145Z,2.80
2019-01-02T05:16:24.478Z,2.80
2019-01-02T05:18:55.813Z,2.80
2019-01-02T05:21:27.168Z,2.80
2019-01-02T05:23:58.486Z,2.80
2019-01-02T05:26:30.941Z,2.80
2019-01-02T05:29:02.306Z,2.80
2019-01-02T05:31:33.764Z,2.70
2019-01-02T05:34:05.062Z,2.70
2019-01-02T05:36:36.399Z,2.70
2019-01-02T05:39:08.465Z,2.70
2019-01-02T05:41:39.857Z,2.60
2019-01-02T05:44:11.147Z,2.60
2019-01-02T05:46:42.509Z,2.60
2019-01-02T05:49:13.846Z,2.60
2019-01-02T05:51:45.162Z,2.60
2019-01-02T05:54:16.494Z,2.60
2019-01-02T05:56:48.541Z,2.60
2019-01-02T05:59:19.870Z,2.50
2019-01-02T06:01:51.383Z,2.50
2019-01-02T06:04:22.734Z,2.60
2019-01-02T06:06:54.043Z,2.50
2019-01-02T06:09:25.561Z,2.50
2019-01-02T06:11:56.870Z,2.60
2019-01-02T06:14:28.270Z,2.60
2019-01-02T06:16:59.754Z,2.50
2019-01-02T06:19:31.055Z,2.50
2019-01-02T06:22:02.374Z,2.50
2019-01-02T06:24:33.670Z,2.50
2019-01-02T06:27:05.637Z,2.50
2019-01-02T06:29:36.953Z,2.50
2019-01-02T06:32:08.644Z,2.50
2019-01-02T06:34:40.002Z,2.50
2019-01-02T06:37:11.352Z,2.50
2019-01-02T06:39:42.709Z,2.50
2019-01-02T06:42:14.031Z,2.50
2019-01-02T06:44:45.370Z,2.50
2019-01-02T06:47:17.490Z,2.50
2019-01-02T06:49:48.827Z,2.50
2019-01-02T06:52:20.261Z,2.60
2019-01-02T06:54:52.298Z,2.50
2019-01-02T06:57:23.997Z,2.60
2019-01-02T06:59:55.498Z,2.60
2019-01-02T07:02:26.857Z,2.60
2019-01-02T07:04:58.518Z,2.60
2019-01-02T07:07:31.293Z,2.60
2019-01-02T07:10:02.655Z,2.60
2019-01-02T07:12:34.219Z,2.60
2019-01-02T07:15:06.087Z,2.60
2019-01-02T07:17:37.582Z,2.60
2019-01-02T07:20:10.219Z,2.60
2019-01-02T07:22:41.604Z,2.60
2019-01-02T07:25:13.005Z,2.60
2019-01-02T07:27:44.811Z,2.60
2019-01-02T07:30:19.094Z,2.60
2019-01-02T07:32:50.522Z,2.60
2019-01-02T07:36:05.327Z,2.60
2019-01-02T07:39:21.386Z,2.60
2019-01-02T07:42:45.753Z,2.60
2019-01-02T07:45:52.083Z,2.60
2019-01-02T07:49:04.139Z,2.60
2019-01-02T07:52:12.234Z,2.60
2019-01-02T07:55:18.106Z,2.60
2019-01-02T07:58:27.456Z,2.60
2019-01-02T08:01:45.630Z,2.60
2019-01-02T08:04:58.859Z,2.60
2019-01-02T08:08:02.151Z,2.60
2019-01-02T08:11:18.138Z,2.60
2019-01-02T08:14:24.587Z,2.60
2019-01-02T08:17:42.032Z,2.60
2019-01-02T08:20:48.550Z,2.60
2019-01-02T08:23:38.749Z,2.60
2019-01-02T08:26:58.269Z,2.70
2019-01-02T08:30:28.114Z,2.70
2019-01-02T08:33:43.606Z,2.70
2019-01-02T08:36:27.658Z,2.70
2019-01-02T08:39:57.625Z,2.70
2019-01-02T08:42:55.726Z,2.70
2019-01-02T08:46:13.989Z,2.70
2019-01-02T08:49:24.403Z,2.70
2019-01-02T08:52:28.301Z,2.70
2019-01-02T08:55:47.053Z,2.80
2019-01-02T08:59:07.099Z,2.70
2019-01-02T09:02:19.702Z,2.70
2019-01-02T09:05:12.747Z,2.80
2019-01-02T09:08:24.819Z,2.80
2019-01-02T09:11:21.382Z,2.80
2019-01-02T09:14:27.699Z,2.80
2019-01-02T09:17:29.175Z,2.90
2019-01-02T09:20:49.011Z,2.90
2019-01-02T09:23:55.504Z,2.90
2019-01-02T09:27:00.785Z,3.00
2019-01-02T09:30:40.036Z,3.00
2019-01-02T09:33:52.321Z,3.10
2019-01-02T09:37:18.433Z,3.10
2019-01-02T09:40:37.955Z,3.20
2019-01-02T09:43:24.492Z,3.20
2019-01-02T09:46:32.103Z,3.30
2019-01-02T09:49:15.798Z,3.30
2019-01-02T09:52:23.418Z,3.30
2019-01-02T09:55:30.330Z,3.30
2019-01-02T09:58:51.758Z,3.30
2019-01-02T10:02:02.251Z,3.20
2019-01-02T10:05:00.918Z,3.20
2019-01-02T10:08:04.217Z,3.20
2019-01-02T10:11:01.715Z,3.20
2019-01-02T10:14:20.618Z,3.30
2019-01-02T10:17:30.003Z,3.30
2019-01-02T10:20:37.055Z,3.40
2019-01-02T10:23:56.266Z,3.40
2019-01-02T10:27:10.001Z,3.40
2019-01-02T10:30:17.463Z,3.50
2019-01-02T10:33:38.305Z,3.50
2019-01-02T10:36:38.896Z,3.50
2019-01-02T10:39:48.109Z,3.50
2019-01-02T10:43:11.891Z,3.60
2019-01-02T10:46:41.814Z,3.70
2019-01-02T10:49:40.173Z,3.70
2019-01-02T10:52:48.024Z,3.80
2019-01-02T10:55:58.458Z,3.80
2019-01-02T10:59:13.165Z,3.80
2019-01-02T11:02:20.850Z,3.90
2019-01-02T11:05:30.325Z,3.90
2019-01-02T11:08:48.162Z,3.90
2019-01-02T11:12:12.598Z,4.10
2019-01-02T11:15:27.166Z,4.10
2019-01-02T11:18:33.507Z,4.10
2019-01-02T11:21:47.850Z,4.20
2019-01-02T11:24:49.133Z,4.20
2019-01-02T11:28:03.085Z,4.30
2019-01-02T11:31:15.056Z,4.30
2019-01-02T11:34:34.936Z,4.30
2019-01-02T11:37:52.038Z,4.30
2019-01-02T11:41:16.339Z,4.40
2019-01-02T11:44:41.626Z,4.40
2019-01-02T11:47:12.964Z,4.40
2019-01-02T11:49:44.296Z,4.40
2019-01-02T11:52:15.627Z,4.40
2019-01-02T11:54:46.923Z,4.30
2019-01-02T11:57:19.341Z,4.20
2019-01-02T11:59:51.158Z,4.00
2019-01-02T12:02:22.483Z,4.10
2019-01-02T12:04:53.936Z,4.20
2019-01-02T12:07:25.261Z,4.30
2019-01-02T12:09:56.698Z,4.30
2019-01-02T12:12:27.999Z,4.40
2019-01-02T12:14:59.365Z,4.40
2019-01-02T12:17:31.182Z,4.50
2019-01-02T12:20:02.567Z,4.60
2019-01-02T12:22:33.915Z,4.60
2019-01-02T12:25:05.576Z,4.60
2019-01-02T12:27:36.926Z,4.70
2019-01-02T12:30:11.981Z,4.80
2019-01-02T12:32:43.515Z,4.80
2019-01-02T12:35:14.823Z,4.80
2019-01-02T12:37:47.502Z,4.80
2019-01-02T12:40:18.833Z,4.70
2019-01-02T12:42:51.224Z,4.60
2019-01-02T12:45:22.546Z,4.60
2019-01-02T12:47:55.578Z,4.60
2019-01-02T12:50:27.261Z,4.60
2019-01-02T12:52:58.602Z,4.60
2019-01-02T12:55:29.963Z,4.60
2019-01-02T12:58:01.319Z,4.50
2019-01-02T13:00:38.461Z,4.50
2019-01-02T13:03:55.394Z,4.50
2019-01-02T13:07:01.187Z,4.50
2019-01-02T13:09:52.184Z,4.50
2019-01-02T13:13:13.290Z,4.40
2019-01-02T13:16:11.097Z,4.40
2019-01-02T13:19:18.689Z,4.40
2019-01-02T13:22:46.002Z,4.40
2019-01-02T13:25:46.839Z,4.30
2019-01-02T13:28:55.934Z,4.30
2019-01-02T13:32:13.897Z,4.20
2019-01-02T13:35:15.449Z,4.30
2019-01-02T13:38:19.098Z,4.30
2019-01-02T13:41:33.261Z,4.30
2019-01-02T13:44:53.160Z,4.30
2019-01-02T13:48:17.378Z,4.30
2019-01-02T13:51:27.119Z,4.30
2019-01-02T13:53:58.518Z,4.30
2019-01-02T13:56:30.843Z,4.40
2019-01-02T13:59:02.254Z,4.40
2019-01-02T14:01:34.807Z,4.40
2019-01-02T14:04:08.036Z,4.40
2019-01-02T14:06:39.355Z,4.30
2019-01-02T14:09:10.641Z,4.20
2019-01-02T14:11:41.939Z,4.20
2019-01-02T14:14:13.240Z,4.10
2019-01-02T14:16:44.552Z,4.10
2019-01-02T14:19:15.874Z,4.00
2019-01-02T14:21:47.184Z,4.00
2019-01-02T14:24:18.497Z,3.90
2019-01-02T14:26:49.798Z,3.90
2019-01-02T14:29:21.263Z,3.80
2019-01-02T14:31:52.983Z,3.80
2019-01-02T14:34:24.456Z,3.80
2019-01-02T14:36:56.459Z,3.70
2019-01-02T14:39:27.818Z,3.70
2019-01-02T14:41:59.120Z,3.60
2019-01-02T14:44:30.471Z,3.60
2019-01-02T14:47:01.773Z,3.50
2019-01-02T14:49:33.105Z,3.50
2019-01-02T14:52:05.062Z,3.40
2019-01-02T14:54:36.738Z,3.40
2019-01-02T14:57:08.092Z,3.40
2019-01-02T14:59:40.287Z,3.30
2019-01-02T15:02:11.857Z,3.30
2019-01-02T15:04:44.648Z,3.20
2019-01-02T15:07:16.009Z,3.20
2019-01-02T15:09:47.338Z,3.10
2019-01-02T15:12:19.983Z,3.10
2019-01-02T15:14:51.603Z,3.10
2019-01-02T15:17:23.104Z,3.00
2019-01-02T15:19:55.100Z,3.00
2019-01-02T15:22:26.615Z,2.90
2019-01-02T15:24:58.087Z,2.90
2019-01-02T15:27:29.586Z,2.90
2019-01-02T15:30:01.386Z,2.80
2019-01-02T15:32:33.317Z,2.80
2019-01-02T15:35:05.705Z,2.70
2019-01-02T15:37:38.157Z,2.60
2019-01-02T15:40:11.657Z,2.60
2019-01-02T15:42:44.297Z,2.50
2019-01-02T15:45:15.820Z,2.50
2019-01-02T15:47:47.109Z,2.50
2019-01-02T15:50:18.554Z,2.40
2019-01-02T15:52:50.778Z,2.40
2019-01-02T15:55:27.373Z,2.30
2019-01-02T15:57:58.866Z,2.30
2019-01-02T16:00:30.235Z,2.30
2019-01-02T16:03:01.558Z,2.30
2019-01-02T16:05:33.332Z,2.20
2019-01-02T16:08:04.743Z,2.20
2019-01-02T16:10:36.412Z,2.20
2019-01-02T16:13:08.029Z,2.10
2019-01-02T16:15:39.367Z,2.10
2019-01-02T16:18:10.984Z,2.00
2019-01-02T16:20:42.341Z,2.00
2019-01-02T16:23:13.682Z,2.00
2019-01-02T16:25:46.044Z,1.90
2019-01-02T16:28:17.365Z,1.90
2019-01-02T16:30:48.711Z,1.80
2019-01-02T16:33:20.662Z,1.70
2019-01-02T16:35:52.894Z,1.70
2019-01-02T16:38:24.322Z,1.60
2019-01-02T16:40:57.259Z,1.50
2019-01-02T16:43:28.674Z,1.40
2019-01-02T16:46:00.013Z,1.40
2019-01-02T16:48:32.771Z,1.30
2019-01-02T16:51:04.103Z,1.20
2019-01-02T16:53:35.421Z,1.20
2019-01-02T16:56:06.744Z,1.10
2019-01-02T16:58:38.284Z,1.10
2019-01-02T17:01:15.303Z,1.10
2019-01-02T17:03:46.786Z,1.00
2019-01-02T17:06:19.190Z,1.00
2019-01-02T17:08:50.544Z,0.90
2019-01-02T17:11:21.811Z,0.90
2019-01-02T17:13:53.649Z,0.80
2019-01-02T17:16:24.999Z,0.80
2019-01-02T17:18:56.334Z,0.80
2019-01-02T17:21:27.690Z,0.70
2019-01-02T17:23:58.969Z,0.70
2019-01-02T17:26:30.307Z,0.70
2019-01-02T17:29:01.615Z,0.60
2019-01-02T17:31:33.396Z,0.60
2019-01-02T17:34:04.776Z,0.50
2019-01-02T17:36:36.086Z,0.40
2019-01-02T17:39:08.898Z,0.40
2019-01-02T17:41:40.244Z,0.40
2019-01-02T17:44:11.840Z,0.30
2019-01-02T17:46:43.094Z,0.30
2019-01-02T17:49:14.378Z,0.20
2019-01-02T17:51:45.617Z,0.20
2019-01-02T17:54:16.873Z,0.10
2019-01-02T17:56:49.125Z,0.10
2019-01-02T17:59:20.409Z,0.10
2019-01-02T18:01:51.770Z,0.10
2019-01-02T18:04:23.042Z,0.10
2019-01-02T18:06:54.647Z,0.00
2019-01-02T18:09:25.852Z,0.00
2019-01-02T18:11:57.102Z,0.00
2019-01-02T18:14:28.366Z,-0.10
2019-01-02T18:16:59.937Z,-0.10
2019-01-02T18:19:32.301Z,-0.20
2019-01-02T18:22:03.589Z,-0.20
2019-01-02T18:24:34.893Z,-0.30
2019-01-02T18:27:06.493Z,-0.30
2019-01-02T18:29:37.968Z,-0.40
2019-01-02T18:32:09.253Z,-0.40
2019-01-02T18:34:40.537Z,-0.40
2019-01-02T18:37:11.820Z,-0.50
2019-01-02T18:39:43.290Z,-0.50
2019-01-02T18:42:14.556Z,-0.60
2019-01-02T18:44:46.846Z,-0.60
2019-01-02T18:47:19.149Z,-0.70
2019-01-02T18:49:50.432Z,-0.70
2019-01-02T18:52:22.192Z,-0.70
2019-01-02T18:54:53.494Z,-0.70
2019-01-02T18:57:25.127Z,-0.80
2019-01-02T18:59:56.584Z,-0.80
2019-01-02T19:02:27.948Z,-0.90
2019-01-02T19:04:59.227Z,-0.90
2019-01-02T19:07:30.525Z,-1.00
2019-01-02T19:10:01.850Z,-1.00
2019-01-02T19:12:34.261Z,-1.00
2019-01-02T19:15:06.064Z,-1.00
2019-01-02T19:17:37.324Z,-1.10
2019-01-02T19:20:08.783Z,-1.10
2019-01-02T19:22:40.060Z,-1.10
2019-01-02T19:25:12.320Z,-1.10
2019-01-02T19:27:43.549Z,-1.20
2019-01-02T19:30:14.969Z,-1.20
2019-01-02T19:32:46.280Z,-1.20
2019-01-02T19:35:18.620Z,-1.20
2019-01-02T19:37:50.091Z,-1.30
2019-01-02T19:40:21.689Z,-1.30
2019-01-02T19:42:52.952Z,-1.30
2019-01-02T19:45:24.257Z,-1.30
2019-01-02T19:47:55.518Z,-1.30
2019-01-02T19:50:26.822Z,-1.40
2019-01-02T19:52:58.097Z,-1.40
2019-01-02T19:55:31.041Z,-1.40
2019-01-02T19:58:02.330Z,-1.40
2019-01-02T20:00:34.486Z,-1.40
2019-01-02T20:03:05.795Z,-1.40
2019-01-02T20:05:37.051Z,-1.50
2019-01-02T20:08:08.785Z,-1.50
2019-01-02T20:10:40.090Z,-1.50
2019-01-02T20:13:11.407Z,-1.50
2019-01-02T20:15:42.731Z,-1.50
2019-01-02T20:18:14.282Z,-1.50
2019-01-02T20:20:45.586Z,-1.60
2019-01-02T20:23:17.338Z,-1.60
2019-01-02T20:25:50.103Z,-1.60
2019-01-02T20:28:21.433Z,-1.70
2019-01-02T20:30:52.775Z,-1.70
2019-01-02T20:33:24.081Z,-1.80
2019-01-02T20:35:55.542Z,-1.80
2019-01-02T20:38:26.837Z,-1.80
2019-01-02T20:40:58.263Z,-1.80
2019-01-02T20:43:29.643Z,-1.90
2019-01-02T20:46:00.990Z,-1.90
2019-01-02T20:48:32.544Z,-1.90
2019-01-02T20:51:03.874Z,-1.90
2019-01-02T20:53:35.261Z,-2.00
2019-01-02T20:56:07.864Z,-2.00
2019-01-02T20:58:40.023Z,-2.00
2019-01-02T21:01:11.410Z,-2.10
2019-01-02T21:03:42.830Z,-2.10
2019-01-02T21:06:14.247Z,-2.10
2019-01-02T21:08:45.765Z,-2.10
2019-01-02T21:11:17.131Z,-2.10
2019-01-02T21:13:48.465Z,-2.10
2019-01-02T21:16:19.814Z,-2.10
2019-01-02T21:18:51.164Z,-2.10
2019-01-02T21:21:23.661Z,-2.20
2019-01-02T21:23:55.217Z,-2.10
2019-01-02T21:26:27.119Z,-2.10
2019-01-02T21:28:58.466Z,-2.10
2019-01-02T21:31:29.775Z,-2.10
2019-01-02T21:34:02.642Z,-2.10
2019-01-02T21:36:34.047Z,-2.20
2019-01-02T21:39:08.001Z,-2.20
2019-01-02T21:41:39.457Z,-2.20
2019-01-02T21:44:10.806Z,-2.20
2019-01-02T21:46:42.175Z,-2.20
2019-01-02T21:49:13.557Z,-2.20
2019-01-02T21:51:45.003Z,-2.20
2019-01-02T21:54:16.333Z,-2.20
2019-01-02T21:56:47.643Z,-2.20
2019-01-02T21:59:19.147Z,-2.20
2019-01-02T22:01:50.490Z,-2.20
2019-01-02T22:04:22.006Z,-2.30
2019-01-02T22:06:53.438Z,-2.30
2019-01-02T22:09:24.949Z,-2.30
2019-01-02T22:11:56.546Z,-2.30
2019-01-02T22:14:29.185Z,-2.30
2019-01-02T22:17:01.776Z,-2.30
2019-01-02T22:19:33.174Z,-2.30
2019-01-02T22:22:04.822Z,-2.40
2019-01-02T22:24:36.293Z,-2.40
2019-01-02T22:27:07.687Z,-2.40
2019-01-02T22:29:41.282Z,-2.50
2019-01-02T22:32:12.917Z,-2.50
2019-01-02T22:34:44.301Z,-2.50
2019-01-02T22:37:15.690Z,-2.50
2019-01-02T22:39:47.018Z,-2.50
2019-01-02T22:42:19.621Z,-2.50
2019-01-02T22:44:50.962Z,-2.50
2019-01-02T22:47:22.311Z,-2.50
2019-01-02T22:49:53.632Z,-2.50
2019-01-02T22:52:25.026Z,-2.60
2019-01-02T22:54:56.698Z,-2.60
2019-01-02T22:57:29.053Z,-2.60
2019-01-02T23:00:00.434Z,-2.70
2019-01-02T23:02:50.065Z,-2.70
2019-01-02T23:05:39.001Z,-2.70
2019-01-02T23:08:35.277Z,-2.70
2019-01-02T23:11:43.847Z,-2.80
2019-01-02T23:14:41.882Z,-2.80
2019-01-02T23:17:37.684Z,-2.90
2019-01-02T23:20:42.865Z,-2.90
2019-01-02T23:23:41.647Z,-2.90
2019-01-02T23:26:47.015Z,-3.00
2019-01-02T23:29:35.994Z,-3.00
2019-01-02T23:32:24.522Z,-3.00
2019-01-02T23:35:26.827Z,-3.10
2019-01-02T23:38:17.010Z,-3.10
2019-01-02T23:41:20.298Z,-3.10
2019-01-02T23:44:09.023Z,-3.10
2019-01-02T23:47:00.118Z,-3.10
2019-01-02T23:49:48.897Z,-3.10
2019-01-02T23:52:42.810Z,-3.20
2019-01-02T23:55:35.754Z,-3.20
2019-01-02T23:58:28.722Z,-3.20
